This is the latest recevied weather packets stored in our database for station/object HG9MFT-11. If no packets are shown the sender has not sent any weather packets the latest 10 day(s).
| Time | Temp. | Humidity | Pressure | Rain* | Wind** | Luminosity | Snow |
|---|---|---|---|---|---|---|---|
| 1778018519 | 17.78° C | 49% | 1009.9 hPa | - | - | - | - |
| 1778016779 | 17.78° C | 49% | 1009.9 hPa | - | - | - | - |
| 1778015038 | 17.78° C | 49% | 1009.8 hPa | - | - | - | - |
| 1778013298 | 17.22° C | 48% | 1009.7 hPa | - | - | - | - |
| 1778011558 | 17.22° C | 48% | 1009.6 hPa | - | - | - | - |
| 1778009818 | 17.22° C | 47% | 1009.5 hPa | - | - | - | - |
| 1778008078 | 17.22° C | 46% | 1009.4 hPa | - | - | - | - |
| 1778006338 | 17.78° C | 44% | 1009.5 hPa | - | - | - | - |
| 1778004598 | 17.78° C | 43% | 1009.3 hPa | - | - | - | - |
| 1778002858 | 17.78° C | 42% | 1009.1 hPa | - | - | - | - |
| 1777999377 | 17.78° C | 41% | 1009.1 hPa | - | - | - | - |
| 1777998659 | 17.78° C | 41% | 1009.2 hPa | - | - | - | - |
| 1777996919 | 17.78° C | 43% | 1009.4 hPa | - | - | - | - |
| 1777995178 | 17.78° C | 46% | 1009.7 hPa | - | - | - | - |
| 1777993438 | 17.78° C | 44% | 1009.8 hPa | - | - | - | - |
| 1777991699 | 17.78° C | 50% | 1010.2 hPa | - | - | - | - |
| 1777989958 | 17.22° C | 50% | 1010.5 hPa | - | - | - | - |
| 1777988218 | 17.22° C | 50% | 1010.9 hPa | - | - | - | - |
| 1777986478 | 17.22° C | 50% | 1011.2 hPa | - | - | - | - |
| 1777982997 | 16.67° C | 53% | 1011.8 hPa | - | - | - | - |
| 1777981257 | 16.67° C | 53% | 1012.2 hPa | - | - | - | - |
| 1777979517 | 16.67° C | 53% | 1012.6 hPa | - | - | - | - |
| 1777977777 | 16.67° C | 54% | 1012.8 hPa | - | - | - | - |
| 1777977057 | 16.67° C | 53% | 1012.8 hPa | - | - | - | - |
| 1777975317 | 16.11° C | 53% | 1013.2 hPa | - | - | - | - |
* Rain since midnight (hover to see other rain measurements)
** Current wind speed in m/s (hover to see current wind gust speed)